createdAt,value
2018-10-16T00:01:01.861Z,10.30
2018-10-16T00:03:34.400Z,10.30
2018-10-16T00:06:04.726Z,10.30
2018-10-16T00:08:37.697Z,10.30
2018-10-16T00:13:52.567Z,10.10
2018-10-16T00:16:24.244Z,10.10
2018-10-16T00:18:55.944Z,10.10
2018-10-16T00:21:30.430Z,10.20
2018-10-16T00:24:02.237Z,10.20
2018-10-16T00:26:33.058Z,10.20
2018-10-16T00:29:06.121Z,10.10
2018-10-16T00:31:39.291Z,10.10
2018-10-16T00:34:11.246Z,10.00
2018-10-16T00:36:43.777Z,10.00
2018-10-16T00:39:16.247Z,9.90
2018-10-16T00:41:51.481Z,9.90
2018-10-16T00:44:21.332Z,10.00
2018-10-16T00:49:33.303Z,10.00
2018-10-16T00:52:02.679Z,9.90
2018-10-16T00:54:32.697Z,9.90
2018-10-16T00:57:02.694Z,9.80
2018-10-16T00:59:33.274Z,9.80
2018-10-16T01:02:03.223Z,9.80
2018-10-16T01:04:39.285Z,9.80
2018-10-16T01:07:15.092Z,9.80
2018-10-16T01:09:47.512Z,9.80
2018-10-16T01:12:17.881Z,9.80
2018-10-16T01:14:48.560Z,9.80
2018-10-16T01:17:18.179Z,9.80
2018-10-16T01:22:27.585Z,9.70
2018-10-16T01:24:57.665Z,9.70
2018-10-16T01:27:28.071Z,9.70
2018-10-16T01:30:05.101Z,9.70
2018-10-16T01:32:36.552Z,9.70
2018-10-16T01:35:08.732Z,9.70
2018-10-16T01:37:39.233Z,9.60
2018-10-16T01:43:27.056Z,9.60
2018-10-16T01:45:56.781Z,9.60
2018-10-16T01:48:27.784Z,9.50
2018-10-16T01:50:58.605Z,9.50
2018-10-16T01:53:28.439Z,9.50
2018-10-16T01:55:58.440Z,9.50
2018-10-16T01:58:29.736Z,9.50
2018-10-16T02:01:02.511Z,9.60
2018-10-16T02:03:33.120Z,9.70
2018-10-16T02:06:03.990Z,9.70
2018-10-16T02:08:34.308Z,9.70
2018-10-16T02:11:04.403Z,9.60
2018-10-16T02:13:34.389Z,9.60
2018-10-16T02:16:04.010Z,9.50
2018-10-16T02:18:35.272Z,9.50
2018-10-16T02:21:06.213Z,9.50
2018-10-16T02:23:36.448Z,9.50
2018-10-16T02:26:07.705Z,9.50
2018-10-16T02:28:38.229Z,9.50
2018-10-16T02:31:11.844Z,9.50
2018-10-16T02:33:44.144Z,9.60
2018-10-16T02:36:14.224Z,9.50
2018-10-16T02:38:49.380Z,9.50
2018-10-16T02:41:19.139Z,9.50
2018-10-16T02:46:35.335Z,9.40
2018-10-16T02:49:05.625Z,9.40
2018-10-16T02:51:34.999Z,9.40
2018-10-16T02:54:05.956Z,9.40
2018-10-16T02:56:36.040Z,9.40
2018-10-16T02:59:07.141Z,9.30
2018-10-16T03:01:40.416Z,9.40
2018-10-16T03:04:10.885Z,9.40
2018-10-16T03:06:42.126Z,9.50
2018-10-16T03:09:14.596Z,9.60
2018-10-16T03:11:45.115Z,9.70
2018-10-16T03:14:15.844Z,9.70
2018-10-16T03:16:46.449Z,9.80
2018-10-16T03:33:16.849Z,9.80
2018-10-16T03:35:52.736Z,9.60
2018-10-16T03:38:23.939Z,9.60
2018-10-16T03:40:56.261Z,9.60
2018-10-16T03:43:27.377Z,9.60
2018-10-16T03:45:58.331Z,9.50
2018-10-16T03:48:32.934Z,9.50
2018-10-16T03:51:11.326Z,9.50
2018-10-16T03:59:15.452Z,9.50
2018-10-16T04:01:51.101Z,9.50
2018-10-16T04:04:26.309Z,9.50
2018-10-16T04:06:58.827Z,9.50
2018-10-16T04:09:36.691Z,9.50
2018-10-16T04:12:22.153Z,9.50
2018-10-16T04:21:08.511Z,9.50
2018-10-16T04:23:39.382Z,9.50
2018-10-16T04:26:14.597Z,9.50
2018-10-16T04:28:48.012Z,9.50
2018-10-16T04:31:20.922Z,9.50
2018-10-16T04:33:50.822Z,9.50
2018-10-16T04:36:21.951Z,9.50
2018-10-16T04:38:53.943Z,9.50
2018-10-16T04:41:23.826Z,9.50
2018-10-16T04:43:55.615Z,9.50
2018-10-16T04:47:38.346Z,9.50
2018-10-16T04:54:20.768Z,9.40
2018-10-16T04:56:50.431Z,9.40
2018-10-16T04:59:25.286Z,9.40
2018-10-16T05:01:54.675Z,9.40
2018-10-16T05:04:48.552Z,9.40
2018-10-16T05:07:20.350Z,9.40
2018-10-16T05:24:01.358Z,9.40
2018-10-16T05:26:30.115Z,9.30
2018-10-16T05:29:01.094Z,9.30
2018-10-16T05:31:30.529Z,9.20
2018-10-16T05:33:59.960Z,9.20
2018-10-16T05:36:48.796Z,9.20
2018-10-16T05:42:39.764Z,9.20
2018-10-16T05:45:12.954Z,9.10
2018-10-16T05:53:17.246Z,9.10
2018-10-16T05:55:46.062Z,9.00
2018-10-16T05:58:14.741Z,9.00
2018-10-16T06:00:45.813Z,9.00
2018-10-16T06:03:14.466Z,9.10
2018-10-16T06:05:45.714Z,9.10
2018-10-16T06:08:40.476Z,9.20
2018-10-16T06:45:02.489Z,9.60
2018-10-16T06:47:31.377Z,9.60
2018-10-16T06:50:00.031Z,9.70
2018-10-16T06:52:28.760Z,9.80
2018-10-16T06:54:57.500Z,9.90
2018-10-16T06:57:26.836Z,10.00
2018-10-16T06:59:55.538Z,10.10
2018-10-16T07:02:24.275Z,10.20
2018-10-16T07:04:53.106Z,10.30
2018-10-16T07:07:22.429Z,10.30
2018-10-16T07:09:51.013Z,10.40
2018-10-16T07:12:19.719Z,10.60
2018-10-16T07:14:48.361Z,10.70
2018-10-16T07:17:17.069Z,10.80
2018-10-16T07:19:45.766Z,10.90
2018-10-16T07:22:14.419Z,11.00
2018-10-16T07:24:43.205Z,11.10
2018-10-16T07:27:11.960Z,11.30
2018-10-16T07:29:40.681Z,13.00
2018-10-16T07:32:09.389Z,17.30
2018-10-16T07:34:38.047Z,20.60
2018-10-16T07:37:06.856Z,22.60
2018-10-16T07:39:35.467Z,22.30
2018-10-16T07:42:04.135Z,20.20
2018-10-16T07:44:44.458Z,18.30
2018-10-16T07:47:16.215Z,17.00
2018-10-16T07:49:49.583Z,16.20
2018-10-16T07:52:18.312Z,15.70
2018-10-16T07:54:47.211Z,15.30
2018-10-16T07:57:15.962Z,15.00
2018-10-16T07:59:44.570Z,14.90
2018-10-16T08:02:13.227Z,15.00
2018-10-16T08:04:42.094Z,15.00
2018-10-16T08:07:10.719Z,15.00
2018-10-16T08:09:39.337Z,15.10
2018-10-16T08:12:09.941Z,15.30
2018-10-16T08:14:39.078Z,15.40
2018-10-16T08:17:08.033Z,15.80
2018-10-16T08:19:36.617Z,17.80
2018-10-16T08:22:05.293Z,22.30
2018-10-16T08:24:33.912Z,26.20
2018-10-16T08:27:02.582Z,29.10
2018-10-16T08:29:31.243Z,30.30
2018-10-16T08:32:00.568Z,31.50
2018-10-16T08:34:29.190Z,32.40
2018-10-16T08:36:58.063Z,33.80
2018-10-16T08:39:30.563Z,33.60
2018-10-16T08:44:24.843Z,34.30
2018-10-16T08:47:04.633Z,35.00
2018-10-16T08:49:44.412Z,35.90
2018-10-16T08:52:12.979Z,36.20
2018-10-16T08:54:46.599Z,37.00
2018-10-16T08:57:15.248Z,37.60
2018-10-16T08:59:44.051Z,37.70
2018-10-16T09:02:29.647Z,37.80
2018-10-16T09:05:00.518Z,37.70
2018-10-16T09:07:37.233Z,38.30
2018-10-16T09:10:06.581Z,39.20
2018-10-16T09:12:35.420Z,40.00
2018-10-16T09:15:05.677Z,40.80
2018-10-16T09:17:35.583Z,40.90
2018-10-16T09:20:06.223Z,40.80
2018-10-16T09:22:35.145Z,41.00
2018-10-16T09:25:04.110Z,40.30
2018-10-16T09:27:33.156Z,41.30
2018-10-16T09:30:02.091Z,41.70
2018-10-16T09:32:31.298Z,42.70
2018-10-16T09:35:01.074Z,43.40
2018-10-16T09:37:31.038Z,43.50
2018-10-16T09:39:59.908Z,42.70
2018-10-16T09:42:29.396Z,42.70
2018-10-16T09:44:59.279Z,42.20
2018-10-16T09:47:28.211Z,41.50
2018-10-16T09:49:57.108Z,41.90
2018-10-16T09:52:26.976Z,41.20
2018-10-16T09:54:55.886Z,41.30
2018-10-16T09:57:25.693Z,41.50
2018-10-16T09:59:54.492Z,42.20
2018-10-16T10:02:23.367Z,42.20
2018-10-16T10:04:52.840Z,42.20
2018-10-16T10:07:21.778Z,42.70
2018-10-16T10:09:51.547Z,43.10
2018-10-16T10:12:20.347Z,44.40
2018-10-16T10:14:49.854Z,44.90
2018-10-16T10:17:18.681Z,43.30
2018-10-16T10:22:47.979Z,41.80
2018-10-16T10:25:19.395Z,43.40
2018-10-16T10:27:49.671Z,45.00
2018-10-16T10:30:18.460Z,45.20
2018-10-16T10:32:47.796Z,44.90
2018-10-16T10:35:16.742Z,43.70
2018-10-16T10:37:46.910Z,43.70
2018-10-16T10:40:19.325Z,44.60
2018-10-16T10:42:51.973Z,43.30
2018-10-16T10:45:23.396Z,42.70
2018-10-16T10:47:52.508Z,44.00
2018-10-16T10:50:23.450Z,44.50
2018-10-16T10:52:55.897Z,44.90
2018-10-16T10:55:30.128Z,45.70
2018-10-16T10:58:02.112Z,45.90
2018-10-16T11:00:31.342Z,46.20
2018-10-16T11:03:01.455Z,46.20
2018-10-16T11:05:30.287Z,46.80
2018-10-16T11:07:58.990Z,46.90
2018-10-16T11:10:33.613Z,45.50
2018-10-16T11:13:02.389Z,44.20
2018-10-16T11:15:31.114Z,44.70
2018-10-16T11:17:59.942Z,44.90
2018-10-16T11:20:28.845Z,45.10
2018-10-16T11:22:58.398Z,45.50
2018-10-16T11:25:27.190Z,45.70
2018-10-16T11:27:56.774Z,45.10
2018-10-16T11:30:25.588Z,44.70
2018-10-16T11:32:54.484Z,43.50
2018-10-16T11:35:23.738Z,42.70
2018-10-16T11:37:52.569Z,42.80
2018-10-16T11:40:21.311Z,42.60
2018-10-16T11:42:50.265Z,42.70
2018-10-16T11:45:20.902Z,42.40
2018-10-16T11:47:52.126Z,42.50
2018-10-16T11:50:21.189Z,42.00
2018-10-16T11:52:50.880Z,42.00
2018-10-16T11:55:20.873Z,41.10
2018-10-16T11:57:49.885Z,40.90
2018-10-16T12:00:19.056Z,40.60
2018-10-16T12:02:49.663Z,40.10
2018-10-16T12:05:20.785Z,39.60
2018-10-16T12:07:49.848Z,39.50
2018-10-16T12:10:19.717Z,39.30
2018-10-16T12:12:48.962Z,38.60
2018-10-16T12:15:17.647Z,37.70
2018-10-16T12:17:51.570Z,37.40
2018-10-16T12:20:41.403Z,37.10
2018-10-16T12:23:45.295Z,37.90
2018-10-16T12:26:14.057Z,38.50
2018-10-16T12:28:43.118Z,38.20
2018-10-16T12:31:12.015Z,38.60
2018-10-16T12:33:40.931Z,38.50
2018-10-16T12:36:09.675Z,37.90
2018-10-16T13:02:55.952Z,36.90
2018-10-16T13:05:25.897Z,36.30
2018-10-16T13:07:54.828Z,35.90
2018-10-16T13:10:24.771Z,35.60
2018-10-16T13:13:12.327Z,35.10
2018-10-16T13:16:04.176Z,33.70
2018-10-16T13:21:45.848Z,34.40
2018-10-16T13:48:15.074Z,34.50
2018-10-16T13:50:50.887Z,34.30
2018-10-16T13:53:27.421Z,33.60
2018-10-16T13:56:03.350Z,33.10
2018-10-16T13:58:37.659Z,32.80
2018-10-16T14:01:13.701Z,32.20
2018-10-16T14:03:53.042Z,32.20
2018-10-16T14:09:53.467Z,32.50
2018-10-16T14:12:42.927Z,32.10
2018-10-16T14:15:19.173Z,31.90
2018-10-16T14:18:04.393Z,31.50
2018-10-16T14:20:46.637Z,31.30
2018-10-16T14:23:27.579Z,30.90
2018-10-16T14:26:06.909Z,30.70
2018-10-16T14:28:47.668Z,30.20
2018-10-16T14:34:38.360Z,29.90
2018-10-16T14:37:15.460Z,29.50
2018-10-16T14:39:48.007Z,29.10
2018-10-16T14:42:22.802Z,28.70
2018-10-16T14:45:03.546Z,28.20
2018-10-16T14:47:37.749Z,27.80
2018-10-16T14:50:20.603Z,27.30
2018-10-16T14:52:53.482Z,26.90
2018-10-16T14:55:34.413Z,26.50
2018-10-16T15:01:16.536Z,25.60
2018-10-16T15:03:51.236Z,25.10
2018-10-16T15:06:25.163Z,24.70
2018-10-16T15:08:58.537Z,24.40
2018-10-16T15:11:30.143Z,24.20
2018-10-16T15:13:58.842Z,24.00
2018-10-16T15:16:27.491Z,23.90
2018-10-16T15:18:56.017Z,23.70
2018-10-16T15:21:24.687Z,23.60
2018-10-16T15:23:53.785Z,23.40
2018-10-16T15:26:22.491Z,23.30
2018-10-16T15:28:51.195Z,23.20
2018-10-16T15:31:19.786Z,23.10
2018-10-16T15:33:48.534Z,23.00
2018-10-16T15:36:17.270Z,22.80
2018-10-16T15:38:45.732Z,22.70
2018-10-16T15:41:14.646Z,22.60
2018-10-16T15:43:43.230Z,22.40
2018-10-16T15:46:11.991Z,22.20
2018-10-16T15:48:40.591Z,22.10
2018-10-16T15:51:09.877Z,21.90
2018-10-16T15:53:38.558Z,21.70
2018-10-16T15:56:07.414Z,21.60
2018-10-16T15:58:52.058Z,21.40
2018-10-16T16:01:20.892Z,21.20
2018-10-16T16:03:49.625Z,21.00
2018-10-16T16:06:18.363Z,20.80
2018-10-16T16:08:46.966Z,20.70
2018-10-16T16:11:15.652Z,20.50
2018-10-16T16:13:44.220Z,20.30
2018-10-16T16:16:15.209Z,20.20
2018-10-16T16:18:44.439Z,20.00
2018-10-16T16:23:59.374Z,19.60
2018-10-16T16:26:27.994Z,19.40
2018-10-16T16:28:56.735Z,19.30
2018-10-16T16:31:42.022Z,19.10
2018-10-16T16:34:13.689Z,18.90
2018-10-16T16:36:42.389Z,18.80
2018-10-16T16:39:13.902Z,18.60
2018-10-16T16:41:43.290Z,18.50
2018-10-16T16:44:12.953Z,18.30
2018-10-16T17:00:34.520Z,18.10
2018-10-16T17:03:05.992Z,17.40
2018-10-16T17:05:37.265Z,17.30
2018-10-16T17:22:05.593Z,17.00
2018-10-16T17:24:48.631Z,16.60
2018-10-16T17:32:17.326Z,16.50
2018-10-16T17:34:46.274Z,16.40
2018-10-16T17:37:18.377Z,16.20
2018-10-16T17:39:48.769Z,16.00
2018-10-16T17:42:18.862Z,16.00
2018-10-16T17:44:48.324Z,15.90
2018-10-16T17:47:17.614Z,15.80
2018-10-16T17:49:46.356Z,15.70
2018-10-16T17:52:15.316Z,15.60
2018-10-16T17:54:45.111Z,15.60
2018-10-16T17:57:14.072Z,15.50
2018-10-16T17:59:46.173Z,15.40
2018-10-16T18:04:54.279Z,15.20
2018-10-16T18:07:24.139Z,15.20
2018-10-16T18:09:54.631Z,15.10
2018-10-16T18:12:23.349Z,15.00
2018-10-16T18:14:53.129Z,15.00
2018-10-16T18:17:22.687Z,15.00
2018-10-16T18:19:51.367Z,14.90
2018-10-16T18:22:20.624Z,14.90
2018-10-16T18:24:50.431Z,14.80
2018-10-16T18:27:26.726Z,14.70
2018-10-16T18:29:55.698Z,14.70
2018-10-16T18:32:25.380Z,14.70
2018-10-16T18:34:54.940Z,14.60
2018-10-16T18:37:23.662Z,14.60
2018-10-16T18:39:52.246Z,14.60
2018-10-16T18:42:21.279Z,14.50
2018-10-16T18:44:50.435Z,14.50
2018-10-16T18:47:19.121Z,14.40
2018-10-16T18:49:47.700Z,14.30
2018-10-16T18:52:17.309Z,14.20
2018-10-16T18:54:47.466Z,14.20
2018-10-16T18:57:16.195Z,14.10
2018-10-16T18:59:44.912Z,14.10
2018-10-16T19:02:13.543Z,14.10
2018-10-16T19:04:44.069Z,14.00
2018-10-16T19:07:13.510Z,14.00
2018-10-16T19:09:42.153Z,13.90
2018-10-16T19:12:10.877Z,13.80
2018-10-16T19:14:39.950Z,13.80
2018-10-16T19:17:08.686Z,13.80
2018-10-16T19:19:37.331Z,13.70
2018-10-16T19:22:06.597Z,13.60
2018-10-16T19:24:37.467Z,13.60
2018-10-16T19:27:07.670Z,13.60
2018-10-16T19:29:36.393Z,13.60
2018-10-16T19:32:05.543Z,13.50
2018-10-16T19:34:37.312Z,13.50
2018-10-16T19:37:05.965Z,13.50
2018-10-16T19:39:36.288Z,13.40
2018-10-16T19:42:05.129Z,13.40
2018-10-16T19:44:33.850Z,13.40
2018-10-16T19:47:02.487Z,13.30
2018-10-16T19:49:31.545Z,13.30
2018-10-16T19:52:04.617Z,13.20
2018-10-16T19:54:33.818Z,13.20
2018-10-16T19:57:03.167Z,13.10
2018-10-16T19:59:33.001Z,13.00
2018-10-16T20:02:01.739Z,13.00
2018-10-16T20:04:31.278Z,13.00
2018-10-16T20:06:59.892Z,13.00
2018-10-16T20:09:28.384Z,13.00
2018-10-16T20:11:57.765Z,12.90
2018-10-16T20:14:26.801Z,12.80
2018-10-16T20:17:04.895Z,12.80
2018-10-16T20:19:33.498Z,12.70
2018-10-16T20:22:02.229Z,12.60
2018-10-16T20:24:31.526Z,12.60
2018-10-16T20:27:01.172Z,12.50
2018-10-16T20:29:31.521Z,12.50
2018-10-16T20:32:01.070Z,12.50
2018-10-16T20:34:30.934Z,12.40
2018-10-16T20:36:59.630Z,12.50
2018-10-16T20:39:28.202Z,12.40
2018-10-16T20:42:01.762Z,12.40
2018-10-16T20:44:30.331Z,12.30
2018-10-16T20:47:00.136Z,12.30
2018-10-16T20:49:28.745Z,12.20
2018-10-16T20:51:58.864Z,12.20
2018-10-16T20:54:27.442Z,12.10
2018-10-16T20:56:57.763Z,12.10
2018-10-16T20:59:27.833Z,12.10
2018-10-16T21:01:58.148Z,12.10
2018-10-16T21:04:27.678Z,12.10
2018-10-16T21:06:59.847Z,12.00
2018-10-16T21:09:28.830Z,12.00
2018-10-16T21:11:59.468Z,11.90
2018-10-16T21:14:28.572Z,11.80
2018-10-16T21:17:00.399Z,11.80
2018-10-16T21:19:31.631Z,11.80
2018-10-16T21:22:02.027Z,11.80
2018-10-16T21:24:32.402Z,11.70
2018-10-16T21:27:06.374Z,11.70
2018-10-16T21:29:36.321Z,11.70
2018-10-16T21:32:06.647Z,11.70
2018-10-16T21:34:35.620Z,11.70
2018-10-16T21:37:06.512Z,11.70
2018-10-16T21:39:36.984Z,11.60
2018-10-16T21:42:09.466Z,11.60
2018-10-16T21:44:39.394Z,11.60
2018-10-16T21:47:09.103Z,11.50
2018-10-16T21:49:38.089Z,11.50
2018-10-16T21:52:07.897Z,11.40
2018-10-16T21:54:39.002Z,11.40
2018-10-16T21:57:08.391Z,11.50
2018-10-16T21:59:38.443Z,11.50
2018-10-16T22:02:12.392Z,11.50
2018-10-16T22:04:44.619Z,11.40
2018-10-16T22:07:16.430Z,11.40
2018-10-16T22:09:44.975Z,11.30
2018-10-16T22:12:13.621Z,11.30
2018-10-16T22:14:43.829Z,11.20
2018-10-16T22:17:12.441Z,11.20
2018-10-16T22:19:41.866Z,11.20
2018-10-16T22:22:11.809Z,11.20
2018-10-16T22:24:42.545Z,11.20
2018-10-16T22:27:12.164Z,11.10
2018-10-16T22:29:41.862Z,11.20
2018-10-16T22:32:10.549Z,11.20
2018-10-16T22:34:40.462Z,11.20
2018-10-16T22:37:13.832Z,11.20
2018-10-16T22:39:45.034Z,11.20
2018-10-16T22:42:14.727Z,11.20
2018-10-16T22:44:43.997Z,11.20
2018-10-16T22:47:15.820Z,11.10
2018-10-16T22:49:45.739Z,11.20
2018-10-16T22:52:15.957Z,11.20
2018-10-16T22:54:46.590Z,11.20
2018-10-16T22:57:17.633Z,11.20
2018-10-16T22:59:46.794Z,11.10
2018-10-16T23:02:17.154Z,11.00
2018-10-16T23:04:46.522Z,11.00
2018-10-16T23:07:17.169Z,10.90
2018-10-16T23:09:48.359Z,10.90
2018-10-16T23:12:18.965Z,10.90
2018-10-16T23:14:50.026Z,10.90
2018-10-16T23:17:19.448Z,10.90
2018-10-16T23:19:48.809Z,10.90
2018-10-16T23:22:18.973Z,10.90
2018-10-16T23:24:51.507Z,10.80
2018-10-16T23:27:21.390Z,10.80
2018-10-16T23:29:50.627Z,10.70
2018-10-16T23:32:20.706Z,10.70
2018-10-16T23:34:49.535Z,10.60
2018-10-16T23:37:18.851Z,10.50
2018-10-16T23:39:49.253Z,10.50
2018-10-16T23:42:19.651Z,10.50
2018-10-16T23:44:48.317Z,10.50
2018-10-16T23:47:18.410Z,10.50
2018-10-16T23:49:50.206Z,10.50
2018-10-16T23:52:19.591Z,10.40
2018-10-16T23:54:51.266Z,10.40
2018-10-16T23:57:23.383Z,10.40
2018-10-16T23:59:52.847Z,10.30
